Time;durP1;ratioP1;P1;durP2;ratioP2;P2;SDS_P1;SDS_P2;PMS_P1;PMS_P2;Temp;Humidity;BMP_temperature;BMP_pressure;BME280_temperature;BME280_humidity;BME280_pressure;Samples;Min_cycle;Max_cycle;Signal;HPM_P1;HPM_P2
2022/10/08 00:00:54;;;;;;;6.80;3.90;;;;;;;20.45;65.65;100571.09;5049042;28;20448;-66
2022/10/08 00:03:20;;;;;;;6.33;3.80;;;;;;;20.43;65.63;100576.41;5069618;28;20420;-66
2022/10/08 00:06:09;;;;;;;6.80;3.93;;;;;;;20.46;65.47;100571.94;5052859;28;20500;-65
2022/10/08 00:08:36;;;;;;;6.00;3.67;;;;;;;20.45;65.91;100575.97;5053082;28;20421;-65
2022/10/08 00:11:07;;;;;;;6.00;4.10;;;;;;;20.44;65.54;100568.59;5036280;28;20432;-66
2022/10/08 00:13:39;;;;;;;6.23;3.60;;;;;;;20.43;65.81;100570.66;5036592;28;20743;-66
2022/10/08 00:16:15;;;;;;;7.50;3.93;;;;;;;20.44;65.83;100571.47;5070804;28;20390;-66
2022/10/08 00:18:43;;;;;;;6.80;3.80;;;;;;;20.45;65.87;100570.25;5052576;28;20912;-66
2022/10/08 00:21:16;;;;;;;5.20;3.90;;;;;;;20.43;66.21;100573.53;5052584;28;20484;-66
2022/10/08 00:23:48;;;;;;;4.87;3.53;;;;;;;20.43;65.60;100572.69;5070292;28;20428;-66
2022/10/08 00:26:14;;;;;;;4.33;3.07;;;;;;;20.46;65.86;100571.94;5084351;28;20394;-66
2022/10/08 00:28:41;;;;;;;6.10;3.80;;;;;;;20.45;65.61;100567.38;5051780;28;20409;-66
2022/10/08 00:31:08;;;;;;;7.13;3.63;;;;;;;20.43;65.97;100558.34;5069541;28;20405;-66
2022/10/08 00:33:37;;;;;;;7.60;4.00;;;;;;;20.41;65.76;100566.53;5069769;28;20405;-66
2022/10/08 00:36:04;;;;;;;5.97;3.73;;;;;;;20.42;65.63;100571.03;5052384;28;20432;-65
2022/10/08 00:38:29;;;;;;;6.37;3.97;;;;;;;20.43;65.70;100567.78;5085004;28;20505;-66
2022/10/08 00:40:55;;;;;;;6.13;3.63;;;;;;;20.42;65.91;100566.13;5073783;28;20421;-66
2022/10/08 00:43:41;;;;;;;5.03;3.67;;;;;;;20.43;65.77;100566.94;5074275;28;20176;-65
2022/10/08 00:46:17;;;;;;;7.23;3.80;;;;;;;20.41;65.46;100564.47;5089975;28;20159;-66
2022/10/08 00:48:43;;;;;;;5.30;3.70;;;;;;;20.41;65.69;100555.84;5074060;28;20998;-66
2022/10/08 00:51:08;;;;;;;4.90;3.30;;;;;;;20.43;65.39;100555.47;5074080;28;20393;-66
2022/10/08 00:53:34;;;;;;;8.50;4.57;;;;;;;20.41;65.77;100560.78;5055982;28;20477;-66
2022/10/08 00:56:00;;;;;;;6.17;3.33;;;;;;;20.43;65.59;100561.22;5056026;28;20155;-66
2022/10/08 00:58:25;;;;;;;8.97;3.83;;;;;;;20.40;65.36;100562.81;5055752;28;20179;-66
2022/10/08 01:00:51;;;;;;;5.30;3.33;;;;;;;20.42;65.78;100566.13;5055778;28;20163;-66
2022/10/08 01:03:16;;;;;;;6.27;3.63;;;;;;;20.39;65.86;100561.16;5053209;22;20448;-72
2022/10/08 01:06:19;;;;;;;5.23;3.47;;;;;;;20.44;65.64;100557.13;5030169;28;20184;-73
2022/10/08 01:08:56;;;;;;;6.93;3.27;;;;;;;20.42;65.94;100548.91;5021040;28;20632;-73
2022/10/08 01:11:48;;;;;;;4.80;3.40;;;;;;;20.40;65.75;100556.25;5015549;28;20965;-73
2022/10/08 01:14:40;;;;;;;5.67;3.37;;;;;;;20.45;65.84;100559.63;5032247;28;20408;-73
2022/10/08 01:17:42;;;;;;;5.60;3.43;;;;;;;20.45;65.47;100570.25;4997476;28;20430;-73
2022/10/08 01:20:32;;;;;;;5.10;3.70;;;;;;;20.40;65.72;100561.97;5030138;28;20419;-74
2022/10/08 01:23:20;;;;;;;5.83;3.30;;;;;;;20.45;65.40;100564.50;4997998;28;20521;-73
2022/10/08 01:26:05;;;;;;;4.73;3.30;;;;;;;20.40;65.73;100568.56;4996483;28;20416;-74
2022/10/08 01:28:33;;;;;;;4.87;3.80;;;;;;;20.39;65.90;100566.91;4995917;28;20555;-74
2022/10/08 01:31:04;;;;;;;5.37;3.40;;;;;;;20.41;65.75;100573.06;4994818;28;20942;-73
2022/10/08 01:33:57;;;;;;;7.30;3.73;;;;;;;20.39;65.73;100571.81;5010694;28;20507;-73
2022/10/08 01:36:23;;;;;;;4.63;3.00;;;;;;;20.38;65.62;100575.88;4984451;28;20471;-73
2022/10/08 01:38:59;;;;;;;5.77;3.67;;;;;;;20.41;65.67;100581.66;4995608;28;20449;-73
2022/10/08 01:41:25;;;;;;;5.03;3.50;;;;;;;20.40;65.60;100576.31;4991147;28;20636;-73
2022/10/08 01:44:03;;;;;;;6.33;3.17;;;;;;;20.39;65.70;100575.50;4978484;28;20473;-74
2022/10/08 01:46:29;;;;;;;4.30;3.23;;;;;;;20.37;65.52;100577.09;4991670;28;20185;-72
2022/10/08 01:48:58;;;;;;;7.17;3.83;;;;;;;20.37;65.84;100580.78;4982272;28;20484;-73
2022/10/08 01:51:31;;;;;;;5.60;3.30;;;;;;;20.39;65.98;100574.66;4978054;28;20204;-73
2022/10/08 01:53:58;;;;;;;5.13;3.43;;;;;;;20.38;65.77;100579.59;4981051;28;20915;-74
2022/10/08 01:56:25;;;;;;;5.00;3.30;;;;;;;20.40;65.59;100573.44;4997018;28;20827;-74
2022/10/08 01:58:54;;;;;;;6.00;3.80;;;;;;;20.36;65.66;100564.78;4980892;28;20431;-73
2022/10/08 02:01:48;;;;;;;4.67;3.40;;;;;;;20.37;65.79;100559.91;5014142;28;20457;-74
2022/10/08 02:04:33;;;;;;;5.43;3.43;;;;;;;20.37;65.78;100557.84;4986698;28;20519;-74
2022/10/08 02:07:01;;;;;;;4.80;3.10;;;;;;;20.40;66.07;100559.09;4994611;28;20539;-73
2022/10/08 02:09:27;;;;;;;4.63;3.30;;;;;;;20.38;65.80;100564.41;4994444;28;20432;-73
2022/10/08 02:11:52;;;;;;;4.13;2.90;;;;;;;20.37;65.59;100563.56;5012628;28;20465;-73
2022/10/08 02:14:19;;;;;;;5.00;3.40;;;;;;;20.36;65.76;100566.84;4993459;28;20169;-73
2022/10/08 02:16:50;;;;;;;4.00;2.93;;;;;;;20.37;65.63;100563.56;4993082;28;20177;-73
2022/10/08 02:19:23;;;;;;;5.57;3.40;;;;;;;20.35;65.46;100563.16;4993420;28;20413;-73
2022/10/08 02:21:51;;;;;;;3.93;3.10;;;;;;;20.34;65.68;100564.38;5009928;28;20403;-73
2022/10/08 02:24:19;;;;;;;4.50;3.03;;;;;;;20.36;65.56;100566.84;4994098;28;20947;-74
2022/10/08 02:26:50;;;;;;;5.60;3.30;;;;;;;20.35;65.69;100571.75;4977150;28;20446;-74
2022/10/08 02:29:31;;;;;;;5.40;3.67;;;;;;;20.34;65.66;100564.38;4993441;28;20436;-72
2022/10/08 02:32:21;;;;;;;5.30;3.73;;;;;;;20.36;65.50;100566.84;4978161;28;20481;-73
2022/10/08 02:34:56;;;;;;;5.17;3.10;;;;;;;20.37;65.54;100563.56;4995031;28;20916;-73
2022/10/08 02:37:27;;;;;;;6.30;3.00;;;;;;;20.36;65.62;100564.78;4987652;28;20475;-73
2022/10/08 02:40:02;;;;;;;6.43;3.50;;;;;;;20.36;65.78;100564.00;4989789;28;20413;-72
2022/10/08 02:42:28;;;;;;;5.40;3.17;;;;;;;20.35;65.56;100570.91;4958815;28;20421;-74
2022/10/08 02:45:06;;;;;;;5.40;3.43;;;;;;;20.36;65.93;100573.41;4957338;28;20429;-73
2022/10/08 02:47:34;;;;;;;4.63;3.30;;;;;;;20.36;65.63;100573.41;4975072;28;20276;-74
2022/10/08 02:50:04;;;;;;;6.13;3.23;;;;;;;20.36;66.16;100581.19;4973595;28;20440;-73
2022/10/08 02:52:34;;;;;;;4.97;3.40;;;;;;;20.34;65.90;100575.84;4989375;28;20583;-73
2022/10/08 02:54:59;;;;;;;4.87;2.60;;;;;;;20.33;65.84;100574.19;4973868;28;20497;-74
2022/10/08 02:57:40;;;;;;;4.47;3.40;;;;;;;20.33;65.73;100581.97;4989749;28;20787;-72
2022/10/08 03:00:06;;;;;;;5.23;3.03;;;;;;;20.32;65.54;100572.50;4989860;28;20197;-73
2022/10/08 03:02:37;;;;;;;4.83;2.93;;;;;;;20.34;65.43;100583.59;4972698;28;20499;-74
2022/10/08 03:05:05;;;;;;;4.40;3.20;;;;;;;20.34;65.63;100584.44;5009727;28;20474;-74
2022/10/08 03:07:31;;;;;;;4.67;3.07;;;;;;;20.32;66.10;100586.84;4953433;28;20543;-73
2022/10/08 03:09:56;;;;;;;4.60;2.90;;;;;;;20.33;65.53;100584.81;4941509;28;20476;-73
2022/10/08 03:12:21;;;;;;;6.83;3.10;;;;;;;20.33;66.13;100582.78;4941236;28;20190;-73
2022/10/08 03:14:47;;;;;;;3.77;2.60;;;;;;;20.33;65.64;100596.28;4956330;28;20170;-73
2022/10/08 03:17:15;;;;;;;4.63;3.50;;;;;;;20.34;65.54;100597.94;4972270;28;20564;-73
2022/10/08 03:19:40;;;;;;;5.07;3.40;;;;;;;20.33;65.60;100596.28;4989921;28;20197;-73
2022/10/08 03:22:06;;;;;;;6.07;3.47;;;;;;;20.32;65.96;100601.19;5027202;28;20407;-71
2022/10/08 03:24:31;;;;;;;4.80;3.20;;;;;;;20.33;65.92;100607.75;5027477;28;20184;-73
2022/10/08 03:26:57;;;;;;;5.10;3.30;;;;;;;20.33;65.87;100605.75;5010947;28;20172;-73
2022/10/08 03:29:23;;;;;;;4.40;3.20;;;;;;;20.32;65.55;100615.53;5027187;28;20255;-74
2022/10/08 03:31:48;;;;;;;4.60;2.80;;;;;;;20.34;65.36;100620.88;5011496;28;20950;-73
2022/10/08 03:34:15;;;;;;;5.70;3.20;;;;;;;20.32;65.80;100621.25;4998840;28;20646;-74
2022/10/08 03:36:41;;;;;;;3.60;2.90;;;;;;;20.33;65.67;100620.06;4989288;28;20177;-74
2022/10/08 03:39:10;;;;;;;3.40;2.40;;;;;;;20.33;65.41;100617.22;5010102;28;20412;-73
2022/10/08 03:41:36;;;;;;;5.83;3.30;;;;;;;20.34;65.68;100615.16;4992776;28;20157;-73
2022/10/08 03:44:01;;;;;;;3.70;2.87;;;;;;;20.32;65.50;100629.88;4991491;28;20455;-74
2022/10/08 03:46:26;;;;;;;4.30;3.00;;;;;;;20.35;65.55;100628.25;5007897;28;20238;-73
2022/10/08 03:48:52;;;;;;;6.30;2.87;;;;;;;20.33;65.66;100619.22;5025298;28;20225;-73
2022/10/08 03:51:18;;;;;;;4.47;2.83;;;;;;;20.32;65.44;100623.31;4975970;28;20185;-73
2022/10/08 03:53:43;;;;;;;4.33;2.90;;;;;;;20.32;65.70;100635.59;4975917;28;20174;-73
2022/10/08 03:56:13;;;;;;;5.73;3.70;;;;;;;20.33;65.54;100630.72;5009103;28;20173;-73
2022/10/08 03:58:39;;;;;;;4.00;3.07;;;;;;;20.32;65.87;100638.47;4967762;28;20610;-73
2022/10/08 04:01:07;;;;;;;3.60;2.43;;;;;;;20.32;65.51;100635.59;5011821;28;20411;-74
2022/10/08 04:03:33;;;;;;;5.43;3.00;;;;;;;20.32;65.50;100641.34;4989256;28;20229;-72
2022/10/08 04:05:58;;;;;;;3.87;2.90;;;;;;;20.31;65.70;100638.88;4988546;28;20786;-73
2022/10/08 04:08:24;;;;;;;5.60;3.50;;;;;;;20.32;65.87;100635.59;4986798;28;20276;-72
2022/10/08 04:10:50;;;;;;;5.70;3.10;;;;;;;20.32;65.47;100641.34;4992204;28;20166;-74
2022/10/08 04:13:15;;;;;;;5.70;3.20;;;;;;;20.31;65.44;100645.41;4992049;28;20486;-71
2022/10/08 04:15:41;;;;;;;3.80;2.67;;;;;;;20.31;65.89;100644.59;5011483;28;20258;-73
2022/10/08 04:18:08;;;;;;;3.67;2.90;;;;;;;20.31;65.72;100648.28;5032052;28;20168;-70
2022/10/08 04:20:33;;;;;;;4.93;2.97;;;;;;;20.32;65.92;100652.81;5015812;28;20442;-74
2022/10/08 04:22:59;;;;;;;3.70;2.47;;;;;;;20.32;65.34;100652.81;5032256;28;21087;-73
2022/10/08 04:25:24;;;;;;;5.23;3.10;;;;;;;20.33;65.58;100645.88;5031038;28;20699;-73
2022/10/08 04:27:49;;;;;;;3.60;2.37;;;;;;;20.32;65.65;100647.06;4990741;28;20182;-73
2022/10/08 04:30:15;;;;;;;4.40;3.00;;;;;;;20.31;65.55;100654.03;4991249;28;20154;-73
2022/10/08 04:32:41;;;;;;;4.30;3.20;;;;;;;20.32;65.69;100652.00;4975571;28;20193;-74
2022/10/08 04:35:07;;;;;;;4.87;3.00;;;;;;;20.34;65.80;100652.44;4959843;28;20252;-73
2022/10/08 04:37:32;;;;;;;4.50;3.30;;;;;;;20.31;65.52;100662.63;4983406;28;20193;-74
2022/10/08 04:39:58;;;;;;;4.90;3.00;;;;;;;20.32;65.42;100652.81;4995681;28;20197;-73
2022/10/08 04:42:23;;;;;;;5.23;2.70;;;;;;;20.33;65.53;100660.22;5010923;28;20637;-73
2022/10/08 04:44:48;;;;;;;5.20;3.10;;;;;;;20.32;65.71;100664.28;4995724;28;20223;-74
2022/10/08 04:47:14;;;;;;;6.20;3.23;;;;;;;20.32;65.65;100664.28;4995153;28;20181;-74
2022/10/08 04:49:39;;;;;;;4.60;3.17;;;;;;;20.31;65.54;100662.63;4995423;28;20165;-73
2022/10/08 04:52:05;;;;;;;3.27;2.50;;;;;;;20.32;65.72;100655.66;4995315;28;20196;-73
2022/10/08 04:54:31;;;;;;;4.50;2.70;;;;;;;20.32;65.49;100669.19;5011546;28;20632;-74
2022/10/08 04:56:56;;;;;;;3.93;2.70;;;;;;;20.32;65.31;100664.28;4994419;28;20435;-73
2022/10/08 04:59:22;;;;;;;3.80;2.73;;;;;;;20.32;65.85;100666.34;4995319;28;20204;-74
2022/10/08 05:01:47;;;;;;;5.17;2.83;;;;;;;20.32;65.41;100670.00;4978413;28;20590;-73
2022/10/08 05:04:13;;;;;;;5.57;2.97;;;;;;;20.32;65.56;100677.81;4995080;28;20927;-73
2022/10/08 05:06:39;;;;;;;4.50;2.73;;;;;;;20.33;65.43;100673.72;5010974;28;20200;-74
2022/10/08 05:09:04;;;;;;;5.00;3.17;;;;;;;20.32;65.61;100675.75;4993222;28;20184;-73
2022/10/08 05:11:30;;;;;;;3.67;2.83;;;;;;;20.34;65.44;100678.22;5008036;28;20192;-73
2022/10/08 05:13:56;;;;;;;6.47;2.63;;;;;;;20.32;65.32;100680.66;5012611;28;20390;-73
2022/10/08 05:16:22;;;;;;;3.87;2.63;;;;;;;20.32;65.53;100674.94;5010936;28;20173;-73
2022/10/08 05:18:49;;;;;;;5.13;2.80;;;;;;;20.33;65.60;100671.69;4994749;28;20404;-73
2022/10/08 05:21:16;;;;;;;4.70;2.80;;;;;;;20.32;65.49;100677.81;4979126;28;20170;-73
2022/10/08 05:23:41;;;;;;;4.43;3.07;;;;;;;20.33;65.69;100683.16;4994630;28;20426;-73
2022/10/08 05:26:14;;;;;;;3.90;2.80;;;;;;;20.33;65.47;100680.28;5010653;28;20420;-70
2022/10/08 05:28:40;;;;;;;3.80;2.70;;;;;;;20.32;65.61;100680.66;4994146;28;20174;-73
2022/10/08 05:31:05;;;;;;;4.13;2.80;;;;;;;20.33;65.63;100683.16;5011361;28;20455;-74
2022/10/08 05:33:31;;;;;;;3.90;2.63;;;;;;;20.33;65.61;100686.03;5011115;28;20669;-74
2022/10/08 05:35:56;;;;;;;4.07;2.40;;;;;;;20.33;65.19;100688.91;5010777;28;20176;-74
2022/10/08 05:38:21;;;;;;;3.57;2.57;;;;;;;20.33;65.47;100691.75;4997545;28;20182;-73
2022/10/08 05:40:47;;;;;;;4.30;2.53;;;;;;;20.32;65.59;100692.94;5008883;28;20173;-74
2022/10/08 05:43:12;;;;;;;2.80;2.23;;;;;;;20.33;65.63;100682.31;5010512;28;20169;-74
2022/10/08 05:45:38;;;;;;;3.33;2.60;;;;;;;20.32;65.54;100681.47;5010502;28;20169;-74
2022/10/08 05:48:03;;;;;;;3.37;2.30;;;;;;;20.32;65.48;100695.81;5010568;28;20201;-73
2022/10/08 05:50:29;;;;;;;3.93;2.63;;;;;;;20.34;65.32;100701.16;5009923;28;20177;-74
2022/10/08 05:52:54;;;;;;;4.40;2.90;;;;;;;20.33;65.18;100708.97;5011635;28;20196;-73
2022/10/08 05:55:19;;;;;;;3.70;2.50;;;;;;;20.33;65.48;100703.22;5007583;28;20520;-73
2022/10/08 05:57:45;;;;;;;4.03;2.30;;;;;;;20.33;65.48;100708.97;5009214;28;20559;-73
2022/10/08 06:00:11;;;;;;;3.90;2.50;;;;;;;20.33;65.50;100703.22;5008959;28;20574;-73
2022/10/08 06:02:37;;;;;;;3.80;2.60;;;;;;;20.33;65.64;100706.09;5011724;28;20205;-73
2022/10/08 06:05:02;;;;;;;4.10;2.67;;;;;;;20.34;65.38;100713.47;5009842;28;20470;-74
2022/10/08 06:07:28;;;;;;;4.00;2.80;;;;;;;20.33;65.19;100717.56;4990826;28;20181;-74
2022/10/08 06:09:53;;;;;;;3.93;2.60;;;;;;;20.34;65.29;100718.38;5019213;28;20177;-73
2022/10/08 06:12:18;;;;;;;3.70;2.30;;;;;;;20.35;65.41;100723.75;5029786;28;20204;-73
2022/10/08 06:14:44;;;;;;;4.10;2.80;;;;;;;20.35;65.51;100723.75;5031095;28;20176;-74
2022/10/08 06:17:09;;;;;;;3.47;2.60;;;;;;;20.34;65.41;100724.13;5011933;28;20603;-73
2022/10/08 06:19:36;;;;;;;4.53;2.70;;;;;;;20.34;65.05;100722.09;4974516;28;20170;-74
2022/10/08 06:22:03;;;;;;;3.33;2.50;;;;;;;20.34;65.55;100724.97;4985751;28;20186;-73
2022/10/08 06:24:28;;;;;;;3.73;2.47;;;;;;;20.34;65.46;100742.16;4973743;28;20439;-71
2022/10/08 06:26:53;;;;;;;3.80;2.60;;;;;;;20.34;65.46;100742.16;4976554;28;20793;-73
2022/10/08 06:29:21;;;;;;;4.40;2.63;;;;;;;20.35;65.17;100743.81;5006515;28;20696;-73
2022/10/08 06:31:46;;;;;;;4.13;2.97;;;;;;;20.34;65.11;100747.91;4996209;28;20225;-74
2022/10/08 06:34:12;;;;;;;3.47;2.60;;;;;;;20.35;65.16;100749.53;4991312;28;20829;-74
2022/10/08 06:36:37;;;;;;;4.23;2.23;;;;;;;20.35;65.14;100758.16;4988979;28;20249;-73
2022/10/08 06:39:05;;;;;;;3.20;2.20;;;;;;;20.35;65.25;100757.31;4973186;28;20181;-72
2022/10/08 06:41:33;;;;;;;4.07;2.40;;;;;;;20.34;65.48;100759.38;4957843;28;20232;-74
2022/10/08 06:43:59;;;;;;;3.40;2.70;;;;;;;20.35;65.41;100760.19;4974408;28;20424;-73
2022/10/08 06:46:25;;;;;;;3.83;2.50;;;;;;;20.35;65.50;100768.78;4981946;28;20427;-74
2022/10/08 06:48:50;;;;;;;3.90;2.33;;;;;;;20.34;65.29;100770.84;4989866;28;20196;-73
2022/10/08 06:51:16;;;;;;;4.20;2.43;;;;;;;20.35;65.20;100769.63;4993241;28;20166;-74
2022/10/08 06:53:42;;;;;;;4.30;2.80;;;;;;;20.37;65.44;100774.97;4992055;28;20264;-72
2022/10/08 06:56:11;;;;;;;3.87;2.70;;;;;;;20.35;65.00;100769.63;5009340;28;20514;-73
2022/10/08 06:58:37;;;;;;;3.60;2.57;;;;;;;20.34;65.10;100773.72;5006048;28;20178;-74
2022/10/08 07:01:09;;;;;;;3.80;2.30;;;;;;;20.36;65.45;100779.88;4977349;28;20970;-74
2022/10/08 07:03:36;;;;;;;3.70;2.30;;;;;;;20.36;65.27;100785.63;5006705;28;20233;-73
2022/10/08 07:06:02;;;;;;;4.80;3.00;;;;;;;20.35;64.96;100786.81;5004456;28;20942;-72
2022/10/08 07:08:28;;;;;;;3.40;2.37;;;;;;;20.36;65.12;100796.28;4984021;28;20417;-73
2022/10/08 07:10:54;;;;;;;4.50;2.80;;;;;;;20.36;65.55;100794.22;4973558;28;21152;-74
2022/10/08 07:13:20;;;;;;;3.80;2.20;;;;;;;20.36;65.23;100794.22;4991801;28;21139;-73
2022/10/08 07:15:45;;;;;;;3.40;2.30;;;;;;;20.36;65.43;100799.16;4987450;28;20185;-73
2022/10/08 07:18:11;;;;;;;3.80;2.50;;;;;;;20.37;65.16;100801.59;4990663;28;20196;-73
2022/10/08 07:20:39;;;;;;;3.43;2.50;;;;;;;20.36;65.18;100802.81;4981314;28;20641;-73
2022/10/08 07:23:05;;;;;;;3.13;2.40;;;;;;;20.37;65.12;100804.47;4993507;28;20987;-72
2022/10/08 07:25:30;;;;;;;3.80;2.60;;;;;;;20.38;65.25;100806.16;4995707;28;20432;-73
2022/10/08 07:27:56;;;;;;;3.60;2.37;;;;;;;20.39;64.73;100810.66;4978287;28;20230;-74
2022/10/08 07:30:21;;;;;;;3.20;2.10;;;;;;;20.37;65.21;100809.41;4989077;28;20182;-74
2022/10/08 07:32:47;;;;;;;2.80;1.83;;;;;;;20.36;65.15;100817.16;4986992;28;20197;-73
2022/10/08 07:35:12;;;;;;;3.57;2.50;;;;;;;20.39;65.16;100815.56;5025488;28;20185;-73
2022/10/08 07:37:41;;;;;;;4.00;2.33;;;;;;;20.37;65.32;100827.41;5002811;28;20181;-73
2022/10/08 07:40:06;;;;;;;3.33;2.43;;;;;;;20.38;65.32;100819.66;4985740;28;20240;-76
2022/10/08 07:42:32;;;;;;;3.40;2.47;;;;;;;20.39;65.43;100825.00;5001970;28;20920;-73
2022/10/08 07:44:57;;;;;;;3.33;2.50;;;;;;;20.40;64.88;100831.56;5004141;28;20181;-73
2022/10/08 07:47:23;;;;;;;4.50;2.57;;;;;;;20.38;65.21;100839.72;4996629;28;20173;-74
2022/10/08 07:49:48;;;;;;;2.90;1.97;;;;;;;20.38;65.24;100839.72;4984773;28;20184;-73
2022/10/08 07:52:14;;;;;;;3.40;2.20;;;;;;;20.38;65.25;100840.56;4991601;28;20289;-71
2022/10/08 07:54:39;;;;;;;3.90;2.73;;;;;;;20.37;65.08;100830.28;4978775;28;20201;-73
2022/10/08 07:57:05;;;;;;;3.80;2.43;;;;;;;20.39;65.09;100841.38;4993287;28;20182;-73
2022/10/08 07:59:30;;;;;;;3.40;2.60;;;;;;;20.38;65.44;100840.56;4991898;28;20231;-72
2022/10/08 08:01:55;;;;;;;3.80;2.50;;;;;;;20.39;65.26;100836.47;4994868;28;20201;-73
2022/10/08 08:04:23;;;;;;;4.03;2.30;;;;;;;20.38;65.07;100846.31;4995176;28;20621;-73
2022/10/08 08:06:51;;;;;;;3.40;2.40;;;;;;;20.40;65.38;100843.03;4967680;28;20763;-73
2022/10/08 08:09:17;;;;;;;4.77;2.87;;;;;;;20.38;65.17;100840.56;4991373;28;20839;-75
2022/10/08 08:11:44;;;;;;;3.73;2.60;;;;;;;20.41;65.19;100841.84;4998331;28;20514;-74
2022/10/08 08:14:10;;;;;;;3.80;2.47;;;;;;;20.42;65.15;100832.84;4985706;28;20452;-73
2022/10/08 08:16:36;;;;;;;3.30;2.07;;;;;;;20.43;65.18;100836.53;4983888;28;20498;-72
2022/10/08 08:19:01;;;;;;;3.47;2.27;;;;;;;20.43;64.91;100837.38;4983469;28;20223;-74
2022/10/08 08:21:30;;;;;;;5.30;2.80;;;;;;;20.42;65.01;100841.44;4999107;28;20197;-73
2022/10/08 08:23:57;;;;;;;3.47;2.47;;;;;;;20.42;64.89;100843.50;4972952;28;21166;-73
2022/10/08 08:26:24;;;;;;;3.67;2.00;;;;;;;20.44;64.66;100849.66;4973704;28;20978;-72
2022/10/08 08:28:51;;;;;;;3.63;2.53;;;;;;;20.43;64.90;100848.03;4975888;28;20421;-73
2022/10/08 08:31:18;;;;;;;3.40;2.33;;;;;;;20.47;64.95;100851.78;5002502;28;20427;-74
2022/10/08 08:33:47;;;;;;;3.13;2.07;;;;;;;20.43;65.08;100848.84;4987494;28;21033;-73
2022/10/08 08:36:12;;;;;;;3.10;2.30;;;;;;;20.43;65.12;100846.00;4994514;28;20528;-73
2022/10/08 08:38:38;;;;;;;3.70;2.20;;;;;;;20.43;64.79;100851.72;4994266;28;20439;-73
2022/10/08 08:41:33;;;;;;;4.53;2.40;;;;;;;20.44;65.08;100855.41;4986539;28;20646;-73
2022/10/08 08:44:03;;;;;;;4.03;2.70;;;;;;;20.43;65.18;100848.84;4991732;28;20181;-72
2022/10/08 08:46:31;;;;;;;3.00;1.90;;;;;;;20.46;64.64;100848.06;5000329;28;20455;-73
2022/10/08 08:48:58;;;;;;;3.43;2.27;;;;;;;20.46;64.82;100855.88;4987188;28;20779;-71
2022/10/08 08:51:23;;;;;;;3.20;2.00;;;;;;;20.44;64.64;100855.41;4984191;28;20432;-73
2022/10/08 08:53:49;;;;;;;3.50;2.37;;;;;;;20.45;64.89;100855.03;4994004;28;20451;-73
2022/10/08 08:56:15;;;;;;;3.80;2.10;;;;;;;20.44;64.88;100862.00;4995879;28;20192;-74
2022/10/08 08:59:21;;;;;;;2.93;2.17;;;;;;;20.45;64.48;100863.63;4981116;28;20336;-74
2022/10/08 09:01:47;;;;;;;3.03;2.27;;;;;;;20.45;64.96;100860.78;4996671;28;20865;-73
2022/10/08 09:04:15;;;;;;;3.77;2.10;;;;;;;20.45;65.07;100869.38;4990800;28;20472;-73
2022/10/08 09:06:41;;;;;;;2.60;1.83;;;;;;;20.46;65.15;100873.91;4998600;28;20197;-73
2022/10/08 09:09:23;;;;;;;3.83;2.33;;;;;;;20.46;64.73;100870.22;4993982;28;20428;-73
2022/10/08 09:11:49;;;;;;;4.43;3.00;;;;;;;20.43;65.09;100877.53;5005034;28;20197;-73
2022/10/08 09:14:29;;;;;;;3.43;2.30;;;;;;;20.45;64.88;100877.97;4999942;28;20433;-73
2022/10/08 09:16:55;;;;;;;4.10;2.43;;;;;;;20.46;64.90;100882.50;4993814;28;20181;-73
2022/10/08 09:19:20;;;;;;;3.00;2.20;;;;;;;20.49;64.61;100880.91;4986959;28;20499;-73
2022/10/08 09:21:46;;;;;;;3.90;2.10;;;;;;;20.48;64.96;100887.84;4994753;28;20201;-73
2022/10/08 09:24:11;;;;;;;2.90;2.10;;;;;;;20.44;64.75;100878.34;4995416;28;20200;-73
2022/10/08 09:26:39;;;;;;;3.40;1.93;;;;;;;20.45;64.82;100882.88;4981170;28;20185;-73
2022/10/08 09:29:04;;;;;;;3.17;2.40;;;;;;;20.47;64.64;100887.03;4999398;28;20240;-73
2022/10/08 09:31:56;;;;;;;4.27;2.33;;;;;;;20.49;64.84;100881.75;4994977;28;20440;-71
2022/10/08 09:34:21;;;;;;;3.43;2.30;;;;;;;20.49;64.90;100884.63;4994267;28;20920;-73
2022/10/08 09:36:49;;;;;;;5.30;2.30;;;;;;;20.48;64.71;100882.97;4974989;28;20436;-73
2022/10/08 09:39:21;;;;;;;3.47;2.40;;;;;;;20.47;64.76;100884.16;4986034;28;20280;-73
2022/10/08 09:42:05;;;;;;;3.30;2.17;;;;;;;20.49;64.96;100893.22;4994638;28;20432;-73
2022/10/08 09:44:51;;;;;;;3.20;2.47;;;;;;;20.50;64.38;100900.63;4991631;28;20424;-73
2022/10/08 09:47:18;;;;;;;3.30;2.17;;;;;;;20.53;64.28;100899.84;4961594;28;20436;-73
2022/10/08 09:49:48;;;;;;;3.20;2.30;;;;;;;20.50;64.43;100903.47;4988610;28;20476;-74
2022/10/08 09:52:25;;;;;;;3.03;2.07;;;;;;;20.49;64.64;100907.56;4970043;28;20514;-70
2022/10/08 09:55:15;;;;;;;3.60;2.30;;;;;;;20.47;64.63;100901.38;4986440;28;20424;-72
2022/10/08 09:57:50;;;;;;;3.60;2.13;;;;;;;20.52;64.46;100903.09;4994860;28;20462;-73
2022/10/08 10:00:31;;;;;;;3.30;2.07;;;;;;;20.52;64.29;100898.19;4992608;28;21272;-72
2022/10/08 10:02:58;;;;;;;3.33;2.13;;;;;;;20.49;64.37;100892.38;4996532;28;20523;-73
2022/10/08 10:05:27;;;;;;;3.37;2.20;;;;;;;20.49;64.67;100904.69;4959673;28;20496;-73
2022/10/08 10:07:53;;;;;;;3.60;2.30;;;;;;;20.52;64.50;100906.78;4987991;28;20420;-74
2022/10/08 10:10:34;;;;;;;4.53;2.10;;;;;;;20.51;64.69;100913.75;4983127;28;20548;-73
2022/10/08 10:12:59;;;;;;;3.67;2.50;;;;;;;20.50;64.62;100912.09;4992050;28;20231;-73
2022/10/08 10:15:33;;;;;;;3.70;1.90;;;;;;;20.49;64.67;100916.19;5001076;28;20433;-73
2022/10/08 10:18:10;;;;;;;3.80;2.43;;;;;;;20.52;64.58;100915.41;5010127;28;20614;-73
2022/10/08 10:20:40;;;;;;;2.53;1.80;;;;;;;20.53;64.38;100919.09;4985333;28;20626;-71
2022/10/08 10:23:10;;;;;;;2.60;1.80;;;;;;;20.53;64.38;100919.09;4970083;28;20436;-73
2022/10/08 10:25:47;;;;;;;3.40;2.27;;;;;;;20.52;64.50;100924.00;4997409;28;20424;-73
2022/10/08 10:28:30;;;;;;;3.13;1.90;;;;;;;20.53;64.46;100924.84;4996568;28;20437;-73
2022/10/08 10:31:04;;;;;;;2.70;2.07;;;;;;;20.55;64.45;100917.50;5003528;28;20535;-73
2022/10/08 10:33:32;;;;;;;2.90;1.90;;;;;;;20.54;64.41;100920.75;4995989;28;20467;-71
2022/10/08 10:36:00;;;;;;;2.90;2.13;;;;;;;20.55;64.44;100914.66;4986377;28;21421;-73
2022/10/08 10:38:29;;;;;;;3.57;2.33;;;;;;;20.55;63.86;100920.38;4995489;28;20467;-72
2022/10/08 10:41:09;;;;;;;3.23;2.00;;;;;;;20.58;64.26;100919.59;5002007;28;20419;-73
2022/10/08 10:43:51;;;;;;;2.80;2.13;;;;;;;20.56;64.50;100915.47;4995214;28;20464;-73
2022/10/08 10:46:35;;;;;;;2.70;1.60;;;;;;;20.56;64.39;100915.47;4979869;28;20452;-74
2022/10/08 10:49:01;;;;;;;2.43;1.60;;;;;;;20.57;64.47;100915.09;4999082;28;20479;-74
2022/10/08 10:51:51;;;;;;;2.70;1.90;;;;;;;20.52;64.69;100914.59;5005781;28;20779;-73
2022/10/08 10:54:25;;;;;;;2.50;1.50;;;;;;;20.56;64.67;100904.81;4992955;28;20232;-73
2022/10/08 10:56:55;;;;;;;3.13;2.03;;;;;;;20.55;64.62;100913.81;4986928;28;20436;-73
2022/10/08 10:59:47;;;;;;;3.10;2.00;;;;;;;20.55;64.25;100913.81;4989790;28;20431;-73
2022/10/08 11:02:21;;;;;;;3.47;1.90;;;;;;;20.62;63.21;100909.03;4987800;28;21301;-71
2022/10/08 11:05:26;;;;;;;5.40;2.00;;;;;;;20.67;63.13;100905.84;5001913;28;20522;-74
2022/10/08 11:08:15;;;;;;;7.93;2.83;;;;;;;20.70;64.02;100907.97;4906778;29;20840;-73
2022/10/08 11:11:09;;;;;;;4.37;2.70;;;;;;;20.78;63.85;100906.88;4909580;29;20487;-73
2022/10/08 11:14:12;;;;;;;4.20;2.33;;;;;;;20.75;63.54;100909.69;4982291;28;20482;-74
2022/10/08 11:17:02;;;;;;;6.13;2.03;;;;;;;20.65;63.26;100908.28;5005696;28;20400;-74
2022/10/08 11:19:33;;;;;;;3.73;1.70;;;;;;;20.52;63.17;100906.78;4998624;28;20419;-75
2022/10/08 11:22:19;;;;;;;13.20;2.53;;;;;;;20.45;59.43;100908.69;4994627;28;20437;-73
2022/10/08 11:25:22;;;;;;;6.17;1.70;;;;;;;20.44;58.56;100907.88;4980228;28;20440;-74
2022/10/08 11:28:07;;;;;;;10.30;2.20;;;;;;;20.45;57.44;100902.94;4987391;28;20807;-72
2022/10/08 11:31:10;;;;;;;5.83;2.07;;;;;;;20.50;55.84;100909.22;5000234;28;20421;-74
2022/10/08 11:33:36;;;;;;;8.27;2.20;;;;;;;20.43;55.80;100903.34;4991957;28;20463;-71
2022/10/08 11:36:08;;;;;;;8.10;2.00;;;;;;;20.44;55.94;100907.88;4991120;28;20708;-73
2022/10/08 11:38:51;;;;;;;5.80;2.17;;;;;;;20.43;56.33;100911.97;5004469;28;20219;-71